sensor_id;sensor_type;location;lat;lon;timestamp;P1;durP1;ratioP1;P2;durP2;ratioP2
17228;SDS011;8731;50.364;8.958;2023-06-26T00:01:02;5.90;;;5.40;;
17228;SDS011;8731;50.364;8.958;2023-06-26T00:05:25;5.90;;;5.33;;
17228;SDS011;8731;50.364;8.958;2023-06-26T00:09:50;6.40;;;5.80;;
17228;SDS011;8731;50.364;8.958;2023-06-26T00:14:12;6.57;;;5.13;;
17228;SDS011;8731;50.364;8.958;2023-06-26T00:18:36;6.10;;;5.57;;
17228;SDS011;8731;50.364;8.958;2023-06-26T00:22:58;6.07;;;5.47;;
17228;SDS011;8731;50.364;8.958;2023-06-26T00:27:21;5.97;;;5.47;;
17228;SDS011;8731;50.364;8.958;2023-06-26T00:31:43;6.37;;;5.73;;
17228;SDS011;8731;50.364;8.958;2023-06-26T00:36:07;6.80;;;5.57;;
17228;SDS011;8731;50.364;8.958;2023-06-26T00:40:30;8.10;;;5.67;;
17228;SDS011;8731;50.364;8.958;2023-06-26T00:44:53;6.10;;;5.50;;
17228;SDS011;8731;50.364;8.958;2023-06-26T00:49:15;7.27;;;5.43;;
17228;SDS011;8731;50.364;8.958;2023-06-26T00:53:40;6.97;;;5.60;;
17228;SDS011;8731;50.364;8.958;2023-06-26T00:58:04;6.87;;;5.50;;
17228;SDS011;8731;50.364;8.958;2023-06-26T01:02:26;6.47;;;5.73;;
17228;SDS011;8731;50.364;8.958;2023-06-26T01:06:53;6.97;;;5.40;;
17228;SDS011;8731;50.364;8.958;2023-06-26T01:11:20;8.47;;;6.27;;
17228;SDS011;8731;50.364;8.958;2023-06-26T01:15:42;6.07;;;5.17;;
17228;SDS011;8731;50.364;8.958;2023-06-26T01:20:05;6.73;;;5.23;;
17228;SDS011;8731;50.364;8.958;2023-06-26T01:24:31;5.90;;;5.30;;
17228;SDS011;8731;50.364;8.958;2023-06-26T01:28:58;6.40;;;5.80;;
17228;SDS011;8731;50.364;8.958;2023-06-26T01:33:24;6.50;;;5.90;;
17228;SDS011;8731;50.364;8.958;2023-06-26T01:37:48;6.87;;;5.97;;
17228;SDS011;8731;50.364;8.958;2023-06-26T01:42:10;6.23;;;5.60;;
17228;SDS011;8731;50.364;8.958;2023-06-26T01:46:35;5.87;;;5.27;;
17228;SDS011;8731;50.364;8.958;2023-06-26T01:51:03;7.20;;;5.73;;
17228;SDS011;8731;50.364;8.958;2023-06-26T01:55:28;8.13;;;5.50;;
17228;SDS011;8731;50.364;8.958;2023-06-26T01:59:57;7.80;;;6.33;;
17228;SDS011;8731;50.364;8.958;2023-06-26T02:04:23;6.60;;;6.00;;
17228;SDS011;8731;50.364;8.958;2023-06-26T02:08:46;6.83;;;6.23;;
17228;SDS011;8731;50.364;8.958;2023-06-26T02:13:08;10.50;;;6.10;;
17228;SDS011;8731;50.364;8.958;2023-06-26T02:17:31;9.20;;;6.30;;
17228;SDS011;8731;50.364;8.958;2023-06-26T02:21:54;9.30;;;6.77;;
17228;SDS011;8731;50.364;8.958;2023-06-26T02:26:18;10.40;;;5.77;;
17228;SDS011;8731;50.364;8.958;2023-06-26T02:30:40;9.13;;;6.30;;
17228;SDS011;8731;50.364;8.958;2023-06-26T02:35:03;7.50;;;6.37;;
17228;SDS011;8731;50.364;8.958;2023-06-26T02:39:27;8.03;;;6.17;;
17228;SDS011;8731;50.364;8.958;2023-06-26T02:43:50;8.03;;;5.93;;
17228;SDS011;8731;50.364;8.958;2023-06-26T02:48:12;6.93;;;6.23;;
17228;SDS011;8731;50.364;8.958;2023-06-26T02:52:36;7.30;;;6.60;;
17228;SDS011;8731;50.364;8.958;2023-06-26T02:57:00;13.20;;;6.03;;
17228;SDS011;8731;50.364;8.958;2023-06-26T03:01:24;12.47;;;6.27;;
17228;SDS011;8731;50.364;8.958;2023-06-26T03:05:47;11.87;;;6.10;;
17228;SDS011;8731;50.364;8.958;2023-06-26T03:10:09;9.17;;;6.37;;
17228;SDS011;8731;50.364;8.958;2023-06-26T03:14:33;10.73;;;5.90;;
17228;SDS011;8731;50.364;8.958;2023-06-26T03:18:55;14.43;;;6.40;;
17228;SDS011;8731;50.364;8.958;2023-06-26T03:23:18;13.10;;;5.90;;
17228;SDS011;8731;50.364;8.958;2023-06-26T03:27:40;9.87;;;6.23;;
17228;SDS011;8731;50.364;8.958;2023-06-26T03:32:05;9.10;;;6.40;;
17228;SDS011;8731;50.364;8.958;2023-06-26T03:36:29;10.00;;;6.63;;
17228;SDS011;8731;50.364;8.958;2023-06-26T03:40:52;9.60;;;6.70;;
17228;SDS011;8731;50.364;8.958;2023-06-26T03:45:14;12.67;;;5.93;;
17228;SDS011;8731;50.364;8.958;2023-06-26T03:49:39;14.63;;;6.23;;
17228;SDS011;8731;50.364;8.958;2023-06-26T03:54:02;11.83;;;6.83;;
17228;SDS011;8731;50.364;8.958;2023-06-26T03:58:24;12.33;;;6.97;;
17228;SDS011;8731;50.364;8.958;2023-06-26T04:02:47;15.20;;;6.83;;
17228;SDS011;8731;50.364;8.958;2023-06-26T04:07:12;12.83;;;6.07;;
17228;SDS011;8731;50.364;8.958;2023-06-26T04:11:36;12.47;;;6.83;;
17228;SDS011;8731;50.364;8.958;2023-06-26T04:15:58;15.63;;;6.20;;
17228;SDS011;8731;50.364;8.958;2023-06-26T04:20:21;21.90;;;6.93;;
17228;SDS011;8731;50.364;8.958;2023-06-26T04:24:45;12.30;;;6.77;;
17228;SDS011;8731;50.364;8.958;2023-06-26T04:29:07;11.77;;;6.03;;
17228;SDS011;8731;50.364;8.958;2023-06-26T04:33:30;12.47;;;6.33;;
17228;SDS011;8731;50.364;8.958;2023-06-26T04:37:53;12.10;;;6.40;;
17228;SDS011;8731;50.364;8.958;2023-06-26T04:42:17;9.97;;;6.70;;
17228;SDS011;8731;50.364;8.958;2023-06-26T04:46:41;8.60;;;6.30;;
17228;SDS011;8731;50.364;8.958;2023-06-26T04:51:04;8.57;;;6.17;;
17228;SDS011;8731;50.364;8.958;2023-06-26T04:55:27;10.23;;;5.83;;
17228;SDS011;8731;50.364;8.958;2023-06-26T04:59:50;13.23;;;6.17;;
17228;SDS011;8731;50.364;8.958;2023-06-26T05:04:13;7.90;;;6.23;;
17228;SDS011;8731;50.364;8.958;2023-06-26T05:08:36;13.10;;;6.87;;
17228;SDS011;8731;50.364;8.958;2023-06-26T05:12:58;7.80;;;5.60;;
17228;SDS011;8731;50.364;8.958;2023-06-26T05:17:21;13.13;;;6.60;;
17228;SDS011;8731;50.364;8.958;2023-06-26T05:21:44;7.20;;;5.27;;
17228;SDS011;8731;50.364;8.958;2023-06-26T05:26:07;8.90;;;6.20;;
17228;SDS011;8731;50.364;8.958;2023-06-26T05:30:30;8.40;;;5.33;;
17228;SDS011;8731;50.364;8.958;2023-06-26T05:34:56;6.57;;;5.80;;
17228;SDS011;8731;50.364;8.958;2023-06-26T05:39:22;6.27;;;4.93;;
17228;SDS011;8731;50.364;8.958;2023-06-26T05:43:45;5.50;;;5.00;;
17228;SDS011;8731;50.364;8.958;2023-06-26T05:48:08;8.97;;;5.70;;
17228;SDS011;8731;50.364;8.958;2023-06-26T05:52:32;5.87;;;5.17;;
17228;SDS011;8731;50.364;8.958;2023-06-26T05:56:56;5.83;;;5.33;;
17228;SDS011;8731;50.364;8.958;2023-06-26T06:01:20;6.30;;;5.07;;
17228;SDS011;8731;50.364;8.958;2023-06-26T06:05:42;5.55;;;4.72;;
17228;SDS011;8731;50.364;8.958;2023-06-26T06:10:06;5.75;;;5.00;;
17228;SDS011;8731;50.364;8.958;2023-06-26T06:14:29;5.70;;;4.63;;
17228;SDS011;8731;50.364;8.958;2023-06-26T06:18:52;6.38;;;5.13;;
17228;SDS011;8731;50.364;8.958;2023-06-26T06:23:14;6.68;;;4.88;;
17228;SDS011;8731;50.364;8.958;2023-06-26T06:27:38;6.15;;;5.28;;
17228;SDS011;8731;50.364;8.958;2023-06-26T06:32:00;6.55;;;4.60;;
17228;SDS011;8731;50.364;8.958;2023-06-26T06:36:22;5.70;;;5.20;;
17228;SDS011;8731;50.364;8.958;2023-06-26T06:40:44;5.40;;;4.90;;
17228;SDS011;8731;50.364;8.958;2023-06-26T06:45:09;5.00;;;4.60;;
17228;SDS011;8731;50.364;8.958;2023-06-26T06:49:31;5.45;;;4.78;;
17228;SDS011;8731;50.364;8.958;2023-06-26T06:53:53;5.68;;;4.95;;
17228;SDS011;8731;50.364;8.958;2023-06-26T06:58:16;8.68;;;5.03;;
17228;SDS011;8731;50.364;8.958;2023-06-26T07:02:41;8.63;;;5.43;;
17228;SDS011;8731;50.364;8.958;2023-06-26T07:07:05;5.15;;;4.75;;
17228;SDS011;8731;50.364;8.958;2023-06-26T07:11:28;7.25;;;5.03;;
17228;SDS011;8731;50.364;8.958;2023-06-26T07:15:51;5.82;;;5.32;;
17228;SDS011;8731;50.364;8.958;2023-06-26T07:20:14;5.10;;;4.68;;
17228;SDS011;8731;50.364;8.958;2023-06-26T07:24:37;5.90;;;5.38;;
17228;SDS011;8731;50.364;8.958;2023-06-26T07:28:59;7.30;;;5.55;;
17228;SDS011;8731;50.364;8.958;2023-06-26T07:33:21;6.00;;;5.50;;
17228;SDS011;8731;50.364;8.958;2023-06-26T07:37:45;7.47;;;5.60;;
17228;SDS011;8731;50.364;8.958;2023-06-26T07:42:07;5.65;;;5.10;;
17228;SDS011;8731;50.364;8.958;2023-06-26T07:46:29;7.10;;;5.93;;
17228;SDS011;8731;50.364;8.958;2023-06-26T07:50:52;6.60;;;5.93;;
17228;SDS011;8731;50.364;8.958;2023-06-26T07:55:16;6.28;;;5.68;;
17228;SDS011;8731;50.364;8.958;2023-06-26T07:59:38;6.55;;;6.05;;
17228;SDS011;8731;50.364;8.958;2023-06-26T08:04:01;7.07;;;6.38;;
17228;SDS011;8731;50.364;8.958;2023-06-26T08:08:23;7.05;;;6.45;;
17228;SDS011;8731;50.364;8.958;2023-06-26T08:12:47;6.25;;;5.63;;
17228;SDS011;8731;50.364;8.958;2023-06-26T08:17:10;6.72;;;5.95;;
17228;SDS011;8731;50.364;8.958;2023-06-26T08:21:32;6.53;;;5.78;;
17228;SDS011;8731;50.364;8.958;2023-06-26T08:25:55;6.45;;;5.93;;
17228;SDS011;8731;50.364;8.958;2023-06-26T08:30:20;7.45;;;6.15;;
17228;SDS011;8731;50.364;8.958;2023-06-26T08:34:43;6.82;;;6.22;;
17228;SDS011;8731;50.364;8.958;2023-06-26T08:39:05;7.97;;;6.07;;
17228;SDS011;8731;50.364;8.958;2023-06-26T08:43:28;6.65;;;6.07;;
17228;SDS011;8731;50.364;8.958;2023-06-26T08:47:52;6.38;;;5.82;;
17228;SDS011;8731;50.364;8.958;2023-06-26T08:52:19;6.95;;;6.22;;
17228;SDS011;8731;50.364;8.958;2023-06-26T08:56:46;6.63;;;6.03;;
17228;SDS011;8731;50.364;8.958;2023-06-26T09:01:11;6.72;;;5.97;;
17228;SDS011;8731;50.364;8.958;2023-06-26T09:05:35;6.82;;;5.60;;
17228;SDS011;8731;50.364;8.958;2023-06-26T09:09:58;6.30;;;5.68;;
17228;SDS011;8731;50.364;8.958;2023-06-26T09:14:20;6.47;;;5.88;;
17228;SDS011;8731;50.364;8.958;2023-06-26T09:18:44;5.68;;;5.18;;
17228;SDS011;8731;50.364;8.958;2023-06-26T09:23:09;5.78;;;5.28;;
17228;SDS011;8731;50.364;8.958;2023-06-26T09:27:31;6.53;;;6.00;;
17228;SDS011;8731;50.364;8.958;2023-06-26T09:31:53;6.60;;;6.00;;
17228;SDS011;8731;50.364;8.958;2023-06-26T09:36:18;6.60;;;5.95;;
17228;SDS011;8731;50.364;8.958;2023-06-26T09:40:43;6.43;;;5.63;;
17228;SDS011;8731;50.364;8.958;2023-06-26T09:45:06;5.95;;;4.95;;
17228;SDS011;8731;50.364;8.958;2023-06-26T09:49:29;6.53;;;5.22;;
17228;SDS011;8731;50.364;8.958;2023-06-26T09:53:52;4.90;;;4.40;;
17228;SDS011;8731;50.364;8.958;2023-06-26T09:58:15;5.95;;;4.70;;
17228;SDS011;8731;50.364;8.958;2023-06-26T10:02:39;6.93;;;4.70;;
17228;SDS011;8731;50.364;8.958;2023-06-26T10:07:01;9.43;;;5.28;;
17228;SDS011;8731;50.364;8.958;2023-06-26T10:11:29;5.90;;;5.22;;
17228;SDS011;8731;50.364;8.958;2023-06-26T10:16:00;4.93;;;4.53;;
17228;SDS011;8731;50.364;8.958;2023-06-26T10:20:23;5.32;;;4.82;;
17228;SDS011;8731;50.364;8.958;2023-06-26T10:24:47;5.78;;;4.68;;
17228;SDS011;8731;50.364;8.958;2023-06-26T10:29:11;5.78;;;4.78;;
17228;SDS011;8731;50.364;8.958;2023-06-26T10:33:38;6.00;;;4.88;;
17228;SDS011;8731;50.364;8.958;2023-06-26T10:38:02;5.35;;;4.72;;
17228;SDS011;8731;50.364;8.958;2023-06-26T10:42:34;4.93;;;4.32;;
17228;SDS011;8731;50.364;8.958;2023-06-26T10:46:58;7.90;;;4.32;;
17228;SDS011;8731;50.364;8.958;2023-06-26T10:51:21;9.02;;;4.20;;
17228;SDS011;8731;50.364;8.958;2023-06-26T10:55:47;5.35;;;4.63;;
17228;SDS011;8731;50.364;8.958;2023-06-26T11:00:14;4.47;;;4.07;;
17228;SDS011;8731;50.364;8.958;2023-06-26T11:04:38;4.90;;;3.95;;
17228;SDS011;8731;50.364;8.958;2023-06-26T11:09:07;4.97;;;4.20;;
17228;SDS011;8731;50.364;8.958;2023-06-26T11:13:34;5.32;;;4.10;;
17228;SDS011;8731;50.364;8.958;2023-06-26T11:17:58;10.45;;;5.22;;
17228;SDS011;8731;50.364;8.958;2023-06-26T11:22:30;4.80;;;4.40;;
17228;SDS011;8731;50.364;8.958;2023-06-26T11:27:00;5.47;;;4.40;;
17228;SDS011;8731;50.364;8.958;2023-06-26T11:31:27;5.03;;;4.57;;
17228;SDS011;8731;50.364;8.958;2023-06-26T11:35:51;6.70;;;4.78;;
17228;SDS011;8731;50.364;8.958;2023-06-26T11:40:17;5.32;;;4.82;;
17228;SDS011;8731;50.364;8.958;2023-06-26T11:44:43;5.82;;;4.20;;
17228;SDS011;8731;50.364;8.958;2023-06-26T11:49:06;5.45;;;4.70;;
17228;SDS011;8731;50.364;8.958;2023-06-26T11:53:29;7.35;;;4.97;;
17228;SDS011;8731;50.364;8.958;2023-06-26T11:57:53;4.75;;;4.35;;
17228;SDS011;8731;50.364;8.958;2023-06-26T12:02:20;5.55;;;4.10;;
17228;SDS011;8731;50.364;8.958;2023-06-26T12:06:45;6.72;;;4.47;;
17228;SDS011;8731;50.364;8.958;2023-06-26T12:11:12;10.23;;;4.40;;
17228;SDS011;8731;50.364;8.958;2023-06-26T12:15:35;5.07;;;4.13;;
17228;SDS011;8731;50.364;8.958;2023-06-26T12:20:00;8.10;;;4.28;;
17228;SDS011;8731;50.364;8.958;2023-06-26T12:24:25;7.60;;;4.65;;
17228;SDS011;8731;50.364;8.958;2023-06-26T12:28:47;6.60;;;4.55;;
17228;SDS011;8731;50.364;8.958;2023-06-26T12:33:15;8.55;;;4.72;;
17228;SDS011;8731;50.364;8.958;2023-06-26T12:37:39;8.23;;;5.28;;
17228;SDS011;8731;50.364;8.958;2023-06-26T12:42:06;6.43;;;4.93;;
17228;SDS011;8731;50.364;8.958;2023-06-26T12:46:33;5.78;;;4.80;;
17228;SDS011;8731;50.364;8.958;2023-06-26T12:50:56;10.75;;;5.22;;
17228;SDS011;8731;50.364;8.958;2023-06-26T12:55:20;7.97;;;4.90;;
17228;SDS011;8731;50.364;8.958;2023-06-26T12:59:44;8.00;;;4.82;;
17228;SDS011;8731;50.364;8.958;2023-06-26T13:04:07;5.50;;;5.00;;
17228;SDS011;8731;50.364;8.958;2023-06-26T13:08:29;7.70;;;5.25;;
17228;SDS011;8731;50.364;8.958;2023-06-26T13:12:53;6.05;;;4.57;;
17228;SDS011;8731;50.364;8.958;2023-06-26T13:17:15;6.82;;;4.90;;
17228;SDS011;8731;50.364;8.958;2023-06-26T13:21:39;4.47;;;4.07;;
17228;SDS011;8731;50.364;8.958;2023-06-26T13:26:02;5.28;;;4.28;;
17228;SDS011;8731;50.364;8.958;2023-06-26T13:30:27;7.05;;;4.20;;
17228;SDS011;8731;50.364;8.958;2023-06-26T13:34:50;5.80;;;3.75;;
17228;SDS011;8731;50.364;8.958;2023-06-26T13:39:12;4.40;;;3.33;;
17228;SDS011;8731;50.364;8.958;2023-06-26T13:43:35;6.10;;;3.60;;
17228;SDS011;8731;50.364;8.958;2023-06-26T13:47:59;6.37;;;3.60;;
17228;SDS011;8731;50.364;8.958;2023-06-26T13:52:21;6.33;;;3.70;;
17228;SDS011;8731;50.364;8.958;2023-06-26T13:56:43;8.88;;;3.53;;
17228;SDS011;8731;50.364;8.958;2023-06-26T14:01:06;6.40;;;3.00;;
17228;SDS011;8731;50.364;8.958;2023-06-26T14:05:30;6.43;;;3.10;;
17228;SDS011;8731;50.364;8.958;2023-06-26T14:09:53;3.92;;;2.97;;
17228;SDS011;8731;50.364;8.958;2023-06-26T14:14:15;4.33;;;2.70;;
17228;SDS011;8731;50.364;8.958;2023-06-26T14:18:39;6.68;;;2.60;;
17228;SDS011;8731;50.364;8.958;2023-06-26T14:23:03;5.80;;;2.77;;
17228;SDS011;8731;50.364;8.958;2023-06-26T14:27:25;5.13;;;2.80;;
17228;SDS011;8731;50.364;8.958;2023-06-26T14:31:48;7.20;;;2.40;;
17228;SDS011;8731;50.364;8.958;2023-06-26T14:36:11;6.77;;;2.20;;
17228;SDS011;8731;50.364;8.958;2023-06-26T14:40:35;4.43;;;2.30;;
17228;SDS011;8731;50.364;8.958;2023-06-26T14:44:57;4.40;;;2.30;;
17228;SDS011;8731;50.364;8.958;2023-06-26T14:49:19;5.03;;;2.13;;
17228;SDS011;8731;50.364;8.958;2023-06-26T14:53:42;4.50;;;2.23;;
17228;SDS011;8731;50.364;8.958;2023-06-26T14:58:06;3.50;;;2.17;;
17228;SDS011;8731;50.364;8.958;2023-06-26T15:02:29;4.70;;;2.00;;
17228;SDS011;8731;50.364;8.958;2023-06-26T15:06:57;6.53;;;2.30;;
17228;SDS011;8731;50.364;8.958;2023-06-26T15:11:21;6.93;;;2.00;;
17228;SDS011;8731;50.364;8.958;2023-06-26T15:15:51;4.47;;;2.03;;
17228;SDS011;8731;50.364;8.958;2023-06-26T15:20:18;3.23;;;1.97;;
17228;SDS011;8731;50.364;8.958;2023-06-26T15:24:56;4.53;;;1.90;;
17228;SDS011;8731;50.364;8.958;2023-06-26T15:29:19;6.37;;;2.47;;
17228;SDS011;8731;50.364;8.958;2023-06-26T15:33:44;2.67;;;1.80;;
17228;SDS011;8731;50.364;8.958;2023-06-26T15:38:07;5.23;;;2.07;;
17228;SDS011;8731;50.364;8.958;2023-06-26T15:42:30;4.17;;;1.90;;
17228;SDS011;8731;50.364;8.958;2023-06-26T15:46:53;6.43;;;2.10;;
17228;SDS011;8731;50.364;8.958;2023-06-26T15:51:19;3.73;;;2.17;;
17228;SDS011;8731;50.364;8.958;2023-06-26T15:55:42;3.07;;;2.10;;
17228;SDS011;8731;50.364;8.958;2023-06-26T16:00:08;3.77;;;1.90;;
17228;SDS011;8731;50.364;8.958;2023-06-26T16:04:36;4.20;;;2.10;;
17228;SDS011;8731;50.364;8.958;2023-06-26T16:09:02;4.07;;;2.03;;
17228;SDS011;8731;50.364;8.958;2023-06-26T16:13:27;4.70;;;1.80;;
17228;SDS011;8731;50.364;8.958;2023-06-26T16:17:50;4.97;;;2.87;;
17228;SDS011;8731;50.364;8.958;2023-06-26T16:22:13;4.93;;;2.07;;
17228;SDS011;8731;50.364;8.958;2023-06-26T16:26:38;9.17;;;2.53;;
17228;SDS011;8731;50.364;8.958;2023-06-26T16:31:01;7.27;;;2.17;;
17228;SDS011;8731;50.364;8.958;2023-06-26T16:35:24;3.83;;;2.00;;
17228;SDS011;8731;50.364;8.958;2023-06-26T16:39:47;5.00;;;2.07;;
17228;SDS011;8731;50.364;8.958;2023-06-26T16:44:11;8.03;;;2.40;;
17228;SDS011;8731;50.364;8.958;2023-06-26T16:48:34;4.63;;;1.60;;
17228;SDS011;8731;50.364;8.958;2023-06-26T16:52:56;2.50;;;1.53;;
17228;SDS011;8731;50.364;8.958;2023-06-26T16:57:19;4.50;;;1.83;;
17228;SDS011;8731;50.364;8.958;2023-06-26T17:01:42;4.97;;;2.00;;
17228;SDS011;8731;50.364;8.958;2023-06-26T17:06:07;4.97;;;2.00;;
17228;SDS011;8731;50.364;8.958;2023-06-26T17:10:30;7.30;;;2.27;;
17228;SDS011;8731;50.364;8.958;2023-06-26T17:14:53;5.40;;;2.23;;
17228;SDS011;8731;50.364;8.958;2023-06-26T17:19:17;3.57;;;1.87;;
17228;SDS011;8731;50.364;8.958;2023-06-26T17:23:42;4.17;;;1.67;;
17228;SDS011;8731;50.364;8.958;2023-06-26T17:28:09;4.47;;;1.70;;
17228;SDS011;8731;50.364;8.958;2023-06-26T17:32:32;9.07;;;2.07;;
17228;SDS011;8731;50.364;8.958;2023-06-26T17:36:59;3.77;;;1.90;;
17228;SDS011;8731;50.364;8.958;2023-06-26T17:41:26;4.13;;;1.63;;
17228;SDS011;8731;50.364;8.958;2023-06-26T17:45:49;7.23;;;1.77;;
17228;SDS011;8731;50.364;8.958;2023-06-26T17:50:12;7.90;;;1.80;;
17228;SDS011;8731;50.364;8.958;2023-06-26T17:54:36;3.80;;;1.60;;
17228;SDS011;8731;50.364;8.958;2023-06-26T17:58:58;5.43;;;1.60;;
17228;SDS011;8731;50.364;8.958;2023-06-26T18:03:21;7.97;;;1.50;;
17228;SDS011;8731;50.364;8.958;2023-06-26T18:07:43;5.17;;;1.80;;
17228;SDS011;8731;50.364;8.958;2023-06-26T18:12:07;5.23;;;1.70;;
17228;SDS011;8731;50.364;8.958;2023-06-26T18:16:30;7.23;;;1.70;;
17228;SDS011;8731;50.364;8.958;2023-06-26T18:20:53;4.33;;;1.57;;
17228;SDS011;8731;50.364;8.958;2023-06-26T18:25:32;5.83;;;1.33;;
17228;SDS011;8731;50.364;8.958;2023-06-26T18:29:56;2.93;;;1.40;;
17228;SDS011;8731;50.364;8.958;2023-06-26T18:34:19;5.50;;;1.50;;
17228;SDS011;8731;50.364;8.958;2023-06-26T18:38:41;3.90;;;1.40;;
17228;SDS011;8731;50.364;8.958;2023-06-26T18:43:06;3.03;;;1.80;;
17228;SDS011;8731;50.364;8.958;2023-06-26T18:47:30;6.97;;;1.83;;
17228;SDS011;8731;50.364;8.958;2023-06-26T18:51:52;3.27;;;1.37;;
17228;SDS011;8731;50.364;8.958;2023-06-26T18:56:15;6.10;;;1.40;;
17228;SDS011;8731;50.364;8.958;2023-06-26T19:00:37;4.97;;;1.43;;
17228;SDS011;8731;50.364;8.958;2023-06-26T19:05:00;1.87;;;1.17;;
17228;SDS011;8731;50.364;8.958;2023-06-26T19:09:26;3.80;;;1.33;;
17228;SDS011;8731;50.364;8.958;2023-06-26T19:13:51;5.93;;;1.40;;
17228;SDS011;8731;50.364;8.958;2023-06-26T19:18:13;3.93;;;1.60;;
17228;SDS011;8731;50.364;8.958;2023-06-26T19:22:37;2.67;;;1.40;;
17228;SDS011;8731;50.364;8.958;2023-06-26T19:27:00;2.77;;;1.53;;
17228;SDS011;8731;50.364;8.958;2023-06-26T19:31:23;6.10;;;1.43;;
17228;SDS011;8731;50.364;8.958;2023-06-26T19:35:45;1.93;;;1.50;;
17228;SDS011;8731;50.364;8.958;2023-06-26T19:40:10;5.37;;;1.47;;
17228;SDS011;8731;50.364;8.958;2023-06-26T19:44:32;2.73;;;1.50;;
17228;SDS011;8731;50.364;8.958;2023-06-26T19:48:55;4.13;;;1.70;;
17228;SDS011;8731;50.364;8.958;2023-06-26T19:53:17;2.23;;;1.53;;
17228;SDS011;8731;50.364;8.958;2023-06-26T19:57:41;4.77;;;1.60;;
17228;SDS011;8731;50.364;8.958;2023-06-26T20:02:05;4.53;;;1.60;;
17228;SDS011;8731;50.364;8.958;2023-06-26T20:06:28;2.67;;;1.70;;
17228;SDS011;8731;50.364;8.958;2023-06-26T20:10:50;1.97;;;1.40;;
17228;SDS011;8731;50.364;8.958;2023-06-26T20:15:14;5.87;;;1.30;;
17228;SDS011;8731;50.364;8.958;2023-06-26T20:19:37;3.20;;;1.37;;
17228;SDS011;8731;50.364;8.958;2023-06-26T20:23:59;3.83;;;1.57;;
17228;SDS011;8731;50.364;8.958;2023-06-26T20:28:22;4.93;;;1.60;;
17228;SDS011;8731;50.364;8.958;2023-06-26T20:32:46;3.67;;;1.40;;
17228;SDS011;8731;50.364;8.958;2023-06-26T20:37:08;4.47;;;1.43;;
17228;SDS011;8731;50.364;8.958;2023-06-26T20:41:31;4.40;;;1.47;;
17228;SDS011;8731;50.364;8.958;2023-06-26T20:45:54;4.50;;;1.37;;
17228;SDS011;8731;50.364;8.958;2023-06-26T20:50:19;3.43;;;1.40;;
17228;SDS011;8731;50.364;8.958;2023-06-26T20:54:43;8.70;;;1.90;;
17228;SDS011;8731;50.364;8.958;2023-06-26T20:59:06;4.27;;;1.30;;
17228;SDS011;8731;50.364;8.958;2023-06-26T21:03:28;5.50;;;1.60;;
17228;SDS011;8731;50.364;8.958;2023-06-26T21:07:52;3.27;;;1.30;;
17228;SDS011;8731;50.364;8.958;2023-06-26T21:12:17;2.73;;;1.30;;
17228;SDS011;8731;50.364;8.958;2023-06-26T21:16:41;3.47;;;1.60;;
17228;SDS011;8731;50.364;8.958;2023-06-26T21:21:03;2.30;;;1.40;;
17228;SDS011;8731;50.364;8.958;2023-06-26T21:25:27;2.77;;;1.23;;
17228;SDS011;8731;50.364;8.958;2023-06-26T21:29:49;2.17;;;1.40;;
17228;SDS011;8731;50.364;8.958;2023-06-26T21:34:12;4.20;;;1.90;;
17228;SDS011;8731;50.364;8.958;2023-06-26T21:38:34;3.23;;;1.73;;
17228;SDS011;8731;50.364;8.958;2023-06-26T21:42:58;3.63;;;1.83;;
17228;SDS011;8731;50.364;8.958;2023-06-26T21:47:20;3.67;;;1.67;;
17228;SDS011;8731;50.364;8.958;2023-06-26T21:51:42;3.33;;;1.40;;
17228;SDS011;8731;50.364;8.958;2023-06-26T21:56:05;5.50;;;1.50;;
17228;SDS011;8731;50.364;8.958;2023-06-26T22:00:28;5.47;;;1.70;;
17228;SDS011;8731;50.364;8.958;2023-06-26T22:04:50;2.63;;;1.20;;
17228;SDS011;8731;50.364;8.958;2023-06-26T22:09:13;2.83;;;1.60;;
17228;SDS011;8731;50.364;8.958;2023-06-26T22:13:35;3.83;;;1.70;;
17228;SDS011;8731;50.364;8.958;2023-06-26T22:17:59;4.37;;;1.70;;
17228;SDS011;8731;50.364;8.958;2023-06-26T22:22:21;4.00;;;1.60;;
17228;SDS011;8731;50.364;8.958;2023-06-26T22:26:44;2.37;;;1.20;;
17228;SDS011;8731;50.364;8.958;2023-06-26T22:31:06;4.40;;;1.73;;
17228;SDS011;8731;50.364;8.958;2023-06-26T22:35:30;5.27;;;1.57;;
17228;SDS011;8731;50.364;8.958;2023-06-26T22:39:52;3.20;;;1.50;;
17228;SDS011;8731;50.364;8.958;2023-06-26T22:44:14;3.13;;;1.53;;
17228;SDS011;8731;50.364;8.958;2023-06-26T22:48:37;2.27;;;1.40;;
17228;SDS011;8731;50.364;8.958;2023-06-26T22:53:00;4.17;;;1.60;;
17228;SDS011;8731;50.364;8.958;2023-06-26T22:57:23;3.33;;;1.27;;
17228;SDS011;8731;50.364;8.958;2023-06-26T23:01:45;2.30;;;1.50;;
17228;SDS011;8731;50.364;8.958;2023-06-26T23:06:07;4.27;;;1.57;;
17228;SDS011;8731;50.364;8.958;2023-06-26T23:10:31;3.17;;;1.60;;
17228;SDS011;8731;50.364;8.958;2023-06-26T23:14:54;8.73;;;1.40;;
17228;SDS011;8731;50.364;8.958;2023-06-26T23:19:16;3.80;;;1.50;;
17228;SDS011;8731;50.364;8.958;2023-06-26T23:23:38;2.80;;;1.27;;
17228;SDS011;8731;50.364;8.958;2023-06-26T23:28:02;2.23;;;1.20;;
17228;SDS011;8731;50.364;8.958;2023-06-26T23:32:25;2.97;;;1.50;;
17228;SDS011;8731;50.364;8.958;2023-06-26T23:36:48;3.63;;;1.47;;
17228;SDS011;8731;50.364;8.958;2023-06-26T23:41:12;4.13;;;1.50;;
17228;SDS011;8731;50.364;8.958;2023-06-26T23:45:36;3.00;;;1.43;;
17228;SDS011;8731;50.364;8.958;2023-06-26T23:49:58;2.63;;;1.10;;
17228;SDS011;8731;50.364;8.958;2023-06-26T23:54:20;4.63;;;1.53;;
17228;SDS011;8731;50.364;8.958;2023-06-26T23:58:43;6.83;;;1.50;;
